sensor_id;sensor_type;location;lat;lon;timestamp;temperature;humidity
10660;DHT22;5378;53.206;13.316;2023-04-25T00:00:16;10.00;99.90
10660;DHT22;5378;53.206;13.316;2023-04-25T00:03:03;10.00;99.90
10660;DHT22;5378;53.206;13.316;2023-04-25T00:05:52;9.90;99.90
10660;DHT22;5378;53.206;13.316;2023-04-25T00:08:43;10.00;99.90
10660;DHT22;5378;53.206;13.316;2023-04-25T00:11:30;10.00;99.90
10660;DHT22;5378;53.206;13.316;2023-04-25T00:14:17;10.00;99.90
10660;DHT22;5378;53.206;13.316;2023-04-25T00:17:04;10.10;99.90
10660;DHT22;5378;53.206;13.316;2023-04-25T00:19:52;10.10;99.90
10660;DHT22;5378;53.206;13.316;2023-04-25T00:22:39;10.00;99.90
10660;DHT22;5378;53.206;13.316;2023-04-25T00:25:27;10.00;99.90
10660;DHT22;5378;53.206;13.316;2023-04-25T00:28:15;10.00;99.90
10660;DHT22;5378;53.206;13.316;2023-04-25T00:31:02;10.10;99.90
10660;DHT22;5378;53.206;13.316;2023-04-25T00:33:49;10.20;99.90
10660;DHT22;5378;53.206;13.316;2023-04-25T00:36:37;10.20;99.90
10660;DHT22;5378;53.206;13.316;2023-04-25T00:39:24;10.30;99.90
10660;DHT22;5378;53.206;13.316;2023-04-25T00:42:12;10.20;99.90
10660;DHT22;5378;53.206;13.316;2023-04-25T00:45:00;10.20;99.90
10660;DHT22;5378;53.206;13.316;2023-04-25T00:47:47;10.20;99.90
10660;DHT22;5378;53.206;13.316;2023-04-25T00:50:35;10.30;99.90
10660;DHT22;5378;53.206;13.316;2023-04-25T00:53:24;10.20;99.90
10660;DHT22;5378;53.206;13.316;2023-04-25T00:56:12;10.20;99.90
10660;DHT22;5378;53.206;13.316;2023-04-25T00:59:01;10.20;99.90
10660;DHT22;5378;53.206;13.316;2023-04-25T01:01:48;10.30;99.90
10660;DHT22;5378;53.206;13.316;2023-04-25T01:04:35;10.10;99.90
10660;DHT22;5378;53.206;13.316;2023-04-25T01:07:23;10.10;99.90
10660;DHT22;5378;53.206;13.316;2023-04-25T01:10:10;10.20;99.90
10660;DHT22;5378;53.206;13.316;2023-04-25T01:12:57;10.20;99.90
10660;DHT22;5378;53.206;13.316;2023-04-25T01:15:46;10.20;99.90
10660;DHT22;5378;53.206;13.316;2023-04-25T01:18:33;10.20;99.90
10660;DHT22;5378;53.206;13.316;2023-04-25T01:21:21;10.30;99.90
10660;DHT22;5378;53.206;13.316;2023-04-25T01:24:08;10.30;99.90
10660;DHT22;5378;53.206;13.316;2023-04-25T01:26:56;10.30;99.90
10660;DHT22;5378;53.206;13.316;2023-04-25T01:29:44;10.30;99.90
10660;DHT22;5378;53.206;13.316;2023-04-25T01:32:33;10.40;99.90
10660;DHT22;5378;53.206;13.316;2023-04-25T01:35:24;10.40;99.90
10660;DHT22;5378;53.206;13.316;2023-04-25T01:38:14;10.30;99.90
10660;DHT22;5378;53.206;13.316;2023-04-25T01:41:01;10.40;99.90
10660;DHT22;5378;53.206;13.316;2023-04-25T01:43:49;10.40;99.90
10660;DHT22;5378;53.206;13.316;2023-04-25T01:46:36;10.40;99.90
10660;DHT22;5378;53.206;13.316;2023-04-25T01:49:23;10.50;99.90
10660;DHT22;5378;53.206;13.316;2023-04-25T01:52:10;10.50;99.90
10660;DHT22;5378;53.206;13.316;2023-04-25T01:54:59;10.40;99.90
10660;DHT22;5378;53.206;13.316;2023-04-25T01:57:49;10.30;99.90
10660;DHT22;5378;53.206;13.316;2023-04-25T02:00:39;10.40;99.90
10660;DHT22;5378;53.206;13.316;2023-04-25T02:03:26;10.40;99.90
10660;DHT22;5378;53.206;13.316;2023-04-25T02:06:15;10.40;99.90
10660;DHT22;5378;53.206;13.316;2023-04-25T02:09:04;10.40;99.90
10660;DHT22;5378;53.206;13.316;2023-04-25T02:11:53;10.30;99.90
10660;DHT22;5378;53.206;13.316;2023-04-25T02:14:47;10.30;99.90
10660;DHT22;5378;53.206;13.316;2023-04-25T02:17:55;10.30;99.90
10660;DHT22;5378;53.206;13.316;2023-04-25T02:20:43;10.30;99.90
10660;DHT22;5378;53.206;13.316;2023-04-25T02:23:31;10.30;99.90
10660;DHT22;5378;53.206;13.316;2023-04-25T02:26:18;10.30;99.90
10660;DHT22;5378;53.206;13.316;2023-04-25T02:29:07;10.20;99.90
10660;DHT22;5378;53.206;13.316;2023-04-25T02:31:54;10.10;99.90
10660;DHT22;5378;53.206;13.316;2023-04-25T02:34:41;10.10;99.90
10660;DHT22;5378;53.206;13.316;2023-04-25T02:37:28;10.20;99.90
10660;DHT22;5378;53.206;13.316;2023-04-25T02:40:14;10.30;99.90
10660;DHT22;5378;53.206;13.316;2023-04-25T02:43:01;10.30;99.90
10660;DHT22;5378;53.206;13.316;2023-04-25T02:45:50;10.30;99.90
10660;DHT22;5378;53.206;13.316;2023-04-25T02:48:37;10.40;99.90
10660;DHT22;5378;53.206;13.316;2023-04-25T02:51:24;10.30;99.90
10660;DHT22;5378;53.206;13.316;2023-04-25T02:54:11;10.30;99.90
10660;DHT22;5378;53.206;13.316;2023-04-25T02:57:02;10.30;99.90
10660;DHT22;5378;53.206;13.316;2023-04-25T02:59:54;10.40;99.90
10660;DHT22;5378;53.206;13.316;2023-04-25T03:02:42;10.30;99.90
10660;DHT22;5378;53.206;13.316;2023-04-25T03:05:29;10.30;99.90
10660;DHT22;5378;53.206;13.316;2023-04-25T03:08:17;10.20;99.90
10660;DHT22;5378;53.206;13.316;2023-04-25T03:11:04;10.10;99.90
10660;DHT22;5378;53.206;13.316;2023-04-25T03:13:53;10.10;99.90
10660;DHT22;5378;53.206;13.316;2023-04-25T03:16:40;10.10;99.90
10660;DHT22;5378;53.206;13.316;2023-04-25T03:19:28;10.10;99.90
10660;DHT22;5378;53.206;13.316;2023-04-25T03:22:16;10.10;99.90
10660;DHT22;5378;53.206;13.316;2023-04-25T03:25:04;10.20;99.90
10660;DHT22;5378;53.206;13.316;2023-04-25T03:27:51;10.30;99.90
10660;DHT22;5378;53.206;13.316;2023-04-25T03:30:38;10.20;99.90
10660;DHT22;5378;53.206;13.316;2023-04-25T03:33:25;10.20;99.90
10660;DHT22;5378;53.206;13.316;2023-04-25T03:36:14;10.20;99.90
10660;DHT22;5378;53.206;13.316;2023-04-25T03:39:01;10.20;99.90
10660;DHT22;5378;53.206;13.316;2023-04-25T03:41:49;10.20;99.90
10660;DHT22;5378;53.206;13.316;2023-04-25T03:44:38;10.10;99.90
10660;DHT22;5378;53.206;13.316;2023-04-25T03:47:25;10.10;99.90
10660;DHT22;5378;53.206;13.316;2023-04-25T03:50:13;10.00;99.90
10660;DHT22;5378;53.206;13.316;2023-04-25T03:53:02;10.00;99.90
10660;DHT22;5378;53.206;13.316;2023-04-25T03:56:00;10.00;99.90
10660;DHT22;5378;53.206;13.316;2023-04-25T03:58:49;10.00;99.90
10660;DHT22;5378;53.206;13.316;2023-04-25T04:01:39;10.00;99.90
10660;DHT22;5378;53.206;13.316;2023-04-25T04:04:26;9.90;99.90
10660;DHT22;5378;53.206;13.316;2023-04-25T04:07:13;9.90;99.90
10660;DHT22;5378;53.206;13.316;2023-04-25T04:10:05;10.00;99.90
10660;DHT22;5378;53.206;13.316;2023-04-25T04:12:55;10.00;99.90
10660;DHT22;5378;53.206;13.316;2023-04-25T04:15:42;9.90;99.90
10660;DHT22;5378;53.206;13.316;2023-04-25T04:18:29;9.90;99.90
10660;DHT22;5378;53.206;13.316;2023-04-25T04:21:16;9.80;99.90
10660;DHT22;5378;53.206;13.316;2023-04-25T04:24:03;9.90;99.90
10660;DHT22;5378;53.206;13.316;2023-04-25T04:27:04;9.80;99.90
10660;DHT22;5378;53.206;13.316;2023-04-25T04:29:55;9.80;99.90
10660;DHT22;5378;53.206;13.316;2023-04-25T04:32:49;9.90;99.90
10660;DHT22;5378;53.206;13.316;2023-04-25T04:35:36;9.90;99.90
10660;DHT22;5378;53.206;13.316;2023-04-25T04:38:24;9.90;99.90
10660;DHT22;5378;53.206;13.316;2023-04-25T04:41:14;9.80;99.90
10660;DHT22;5378;53.206;13.316;2023-04-25T04:44:10;9.80;99.90
10660;DHT22;5378;53.206;13.316;2023-04-25T04:47:17;9.80;99.90
10660;DHT22;5378;53.206;13.316;2023-04-25T04:50:16;9.80;99.90
10660;DHT22;5378;53.206;13.316;2023-04-25T04:53:33;9.80;99.90
10660;DHT22;5378;53.206;13.316;2023-04-25T04:56:41;9.70;99.90
10660;DHT22;5378;53.206;13.316;2023-04-25T04:59:49;9.80;99.90
10660;DHT22;5378;53.206;13.316;2023-04-25T05:02:56;9.90;99.90
10660;DHT22;5378;53.206;13.316;2023-04-25T05:06:09;9.90;99.90
10660;DHT22;5378;53.206;13.316;2023-04-25T05:09:26;9.90;99.90
10660;DHT22;5378;53.206;13.316;2023-04-25T05:12:40;9.80;99.90
10660;DHT22;5378;53.206;13.316;2023-04-25T05:15:56;9.80;99.90
10660;DHT22;5378;53.206;13.316;2023-04-25T05:18:53;9.80;99.90
10660;DHT22;5378;53.206;13.316;2023-04-25T05:21:47;9.80;99.90
10660;DHT22;5378;53.206;13.316;2023-04-25T05:24:51;9.80;99.90
10660;DHT22;5378;53.206;13.316;2023-04-25T05:27:52;9.70;99.90
10660;DHT22;5378;53.206;13.316;2023-04-25T05:31:01;9.80;99.90
10660;DHT22;5378;53.206;13.316;2023-04-25T05:33:57;9.90;99.90
10660;DHT22;5378;53.206;13.316;2023-04-25T05:36:52;9.90;99.90
10660;DHT22;5378;53.206;13.316;2023-04-25T05:39:39;10.00;99.90
10660;DHT22;5378;53.206;13.316;2023-04-25T05:42:49;9.90;99.90
10660;DHT22;5378;53.206;13.316;2023-04-25T05:46:10;9.90;99.90
10660;DHT22;5378;53.206;13.316;2023-04-25T05:49:11;10.00;99.90
10660;DHT22;5378;53.206;13.316;2023-04-25T05:52:15;10.00;99.90
10660;DHT22;5378;53.206;13.316;2023-04-25T05:55:07;10.00;99.90
10660;DHT22;5378;53.206;13.316;2023-04-25T05:57:54;9.90;99.90
10660;DHT22;5378;53.206;13.316;2023-04-25T06:00:41;9.90;99.90
10660;DHT22;5378;53.206;13.316;2023-04-25T06:03:30;9.70;99.90
10660;DHT22;5378;53.206;13.316;2023-04-25T06:06:17;9.70;99.90
10660;DHT22;5378;53.206;13.316;2023-04-25T06:09:05;9.80;99.90
10660;DHT22;5378;53.206;13.316;2023-04-25T06:11:52;9.70;99.90
10660;DHT22;5378;53.206;13.316;2023-04-25T06:14:40;9.80;99.90
10660;DHT22;5378;53.206;13.316;2023-04-25T06:17:27;9.80;99.90
10660;DHT22;5378;53.206;13.316;2023-04-25T06:20:16;9.80;99.90
10660;DHT22;5378;53.206;13.316;2023-04-25T06:23:02;9.70;99.90
10660;DHT22;5378;53.206;13.316;2023-04-25T06:26:07;9.70;99.90
10660;DHT22;5378;53.206;13.316;2023-04-25T06:28:57;9.80;99.90
10660;DHT22;5378;53.206;13.316;2023-04-25T06:31:44;9.60;99.90
10660;DHT22;5378;53.206;13.316;2023-04-25T06:34:32;9.60;99.90
10660;DHT22;5378;53.206;13.316;2023-04-25T06:37:20;9.60;99.90
10660;DHT22;5378;53.206;13.316;2023-04-25T06:40:09;9.50;99.90
10660;DHT22;5378;53.206;13.316;2023-04-25T06:42:56;9.60;99.90
10660;DHT22;5378;53.206;13.316;2023-04-25T06:46:10;9.60;99.90
10660;DHT22;5378;53.206;13.316;2023-04-25T06:49:02;9.60;99.90
10660;DHT22;5378;53.206;13.316;2023-04-25T06:51:49;9.60;99.90
10660;DHT22;5378;53.206;13.316;2023-04-25T06:54:37;9.60;99.90
10660;DHT22;5378;53.206;13.316;2023-04-25T06:57:37;9.60;99.90
10660;DHT22;5378;53.206;13.316;2023-04-25T07:00:44;9.50;99.90
10660;DHT22;5378;53.206;13.316;2023-04-25T07:03:31;9.50;99.90
10660;DHT22;5378;53.206;13.316;2023-04-25T07:06:23;9.60;99.90
10660;DHT22;5378;53.206;13.316;2023-04-25T07:09:12;9.60;99.90
10660;DHT22;5378;53.206;13.316;2023-04-25T07:12:03;9.70;99.90
10660;DHT22;5378;53.206;13.316;2023-04-25T07:14:50;9.60;99.90
10660;DHT22;5378;53.206;13.316;2023-04-25T07:17:37;9.80;99.90
10660;DHT22;5378;53.206;13.316;2023-04-25T07:20:25;9.70;99.90
10660;DHT22;5378;53.206;13.316;2023-04-25T07:23:14;9.70;99.90
10660;DHT22;5378;53.206;13.316;2023-04-25T07:26:01;9.80;99.90
10660;DHT22;5378;53.206;13.316;2023-04-25T07:28:50;9.70;99.90
10660;DHT22;5378;53.206;13.316;2023-04-25T07:31:37;9.80;99.90
10660;DHT22;5378;53.206;13.316;2023-04-25T07:34:24;9.80;99.90
10660;DHT22;5378;53.206;13.316;2023-04-25T07:37:12;10.10;99.90
10660;DHT22;5378;53.206;13.316;2023-04-25T07:40:15;10.00;99.90
10660;DHT22;5378;53.206;13.316;2023-04-25T07:43:06;10.30;99.90
10660;DHT22;5378;53.206;13.316;2023-04-25T07:46:04;10.60;99.90
10660;DHT22;5378;53.206;13.316;2023-04-25T07:48:53;11.10;99.90
10660;DHT22;5378;53.206;13.316;2023-04-25T07:51:40;11.70;99.90
10660;DHT22;5378;53.206;13.316;2023-04-25T07:54:31;12.30;99.90
10660;DHT22;5378;53.206;13.316;2023-04-25T07:57:25;12.90;99.90
10660;DHT22;5378;53.206;13.316;2023-04-25T08:00:15;13.60;99.90
10660;DHT22;5378;53.206;13.316;2023-04-25T08:03:10;15.40;99.90
10660;DHT22;5378;53.206;13.316;2023-04-25T08:05:58;17.30;99.90
10660;DHT22;5378;53.206;13.316;2023-04-25T08:08:49;18.90;97.90
10660;DHT22;5378;53.206;13.316;2023-04-25T08:11:38;19.60;95.00
10660;DHT22;5378;53.206;13.316;2023-04-25T08:14:27;19.00;94.60
10660;DHT22;5378;53.206;13.316;2023-04-25T08:17:21;17.70;95.20
10660;DHT22;5378;53.206;13.316;2023-04-25T08:20:11;16.30;97.30
10660;DHT22;5378;53.206;13.316;2023-04-25T08:22:59;15.30;98.60
10660;DHT22;5378;53.206;13.316;2023-04-25T08:26:05;15.90;96.90
10660;DHT22;5378;53.206;13.316;2023-04-25T08:28:55;17.40;95.80
10660;DHT22;5378;53.206;13.316;2023-04-25T08:31:42;18.50;93.70
10660;DHT22;5378;53.206;13.316;2023-04-25T08:34:31;19.30;92.90
10660;DHT22;5378;53.206;13.316;2023-04-25T08:37:22;19.60;90.50
10660;DHT22;5378;53.206;13.316;2023-04-25T08:40:19;19.40;91.20
10660;DHT22;5378;53.206;13.316;2023-04-25T08:43:14;19.30;90.80
10660;DHT22;5378;53.206;13.316;2023-04-25T08:46:01;17.70;92.50
10660;DHT22;5378;53.206;13.316;2023-04-25T08:49:00;16.70;92.30
10660;DHT22;5378;53.206;13.316;2023-04-25T08:51:49;15.70;93.30
10660;DHT22;5378;53.206;13.316;2023-04-25T08:54:43;14.50;92.40
10660;DHT22;5378;53.206;13.316;2023-04-25T08:57:33;13.50;93.60
10660;DHT22;5378;53.206;13.316;2023-04-25T09:00:21;13.70;94.80
10660;DHT22;5378;53.206;13.316;2023-04-25T09:03:09;14.20;95.00
10660;DHT22;5378;53.206;13.316;2023-04-25T09:05:58;14.20;95.70
10660;DHT22;5378;53.206;13.316;2023-04-25T09:08:45;13.90;95.90
10660;DHT22;5378;53.206;13.316;2023-04-25T09:11:35;13.20;96.60
10660;DHT22;5378;53.206;13.316;2023-04-25T09:14:26;12.50;96.60
10660;DHT22;5378;53.206;13.316;2023-04-25T09:17:23;12.30;98.10
10660;DHT22;5378;53.206;13.316;2023-04-25T09:20:13;12.10;97.70
10660;DHT22;5378;53.206;13.316;2023-04-25T09:23:01;12.10;99.20
10660;DHT22;5378;53.206;13.316;2023-04-25T09:25:52;12.90;97.20
10660;DHT22;5378;53.206;13.316;2023-04-25T09:28:41;13.90;94.50
10660;DHT22;5378;53.206;13.316;2023-04-25T09:31:28;14.40;93.90
10660;DHT22;5378;53.206;13.316;2023-04-25T09:34:19;14.30;93.70
10660;DHT22;5378;53.206;13.316;2023-04-25T09:37:17;14.20;94.50
10660;DHT22;5378;53.206;13.316;2023-04-25T09:40:27;14.40;93.40
10660;DHT22;5378;53.206;13.316;2023-04-25T09:43:26;14.30;94.70
10660;DHT22;5378;53.206;13.316;2023-04-25T09:46:16;13.60;95.00
10660;DHT22;5378;53.206;13.316;2023-04-25T09:49:10;13.10;95.30
10660;DHT22;5378;53.206;13.316;2023-04-25T09:52:06;13.00;95.40
10660;DHT22;5378;53.206;13.316;2023-04-25T09:54:59;13.10;94.80
10660;DHT22;5378;53.206;13.316;2023-04-25T09:57:52;12.90;95.10
10660;DHT22;5378;53.206;13.316;2023-04-25T10:00:41;12.70;96.60
10660;DHT22;5378;53.206;13.316;2023-04-25T10:03:43;12.70;95.50
10660;DHT22;5378;53.206;13.316;2023-04-25T10:06:48;12.70;96.50
10660;DHT22;5378;53.206;13.316;2023-04-25T10:09:37;12.70;98.20
10660;DHT22;5378;53.206;13.316;2023-04-25T10:12:26;12.60;96.60
10660;DHT22;5378;53.206;13.316;2023-04-25T10:15:14;12.10;97.90
10660;DHT22;5378;53.206;13.316;2023-04-25T10:18:01;11.60;97.20
10660;DHT22;5378;53.206;13.316;2023-04-25T10:20:51;11.40;97.80
10660;DHT22;5378;53.206;13.316;2023-04-25T10:23:40;11.30;98.70
10660;DHT22;5378;53.206;13.316;2023-04-25T10:26:27;11.30;99.00
10660;DHT22;5378;53.206;13.316;2023-04-25T10:29:22;11.30;99.30
10660;DHT22;5378;53.206;13.316;2023-04-25T10:32:10;11.30;99.70
10660;DHT22;5378;53.206;13.316;2023-04-25T10:34:57;11.10;97.70
10660;DHT22;5378;53.206;13.316;2023-04-25T10:38:03;11.10;98.00
10660;DHT22;5378;53.206;13.316;2023-04-25T10:41:02;11.40;99.90
10660;DHT22;5378;53.206;13.316;2023-04-25T10:43:59;11.70;99.80
10660;DHT22;5378;53.206;13.316;2023-04-25T10:46:47;12.10;99.60
10660;DHT22;5378;53.206;13.316;2023-04-25T10:49:35;12.20;98.90
10660;DHT22;5378;53.206;13.316;2023-04-25T10:52:26;12.40;97.50
10660;DHT22;5378;53.206;13.316;2023-04-25T10:55:17;12.50;96.60
10660;DHT22;5378;53.206;13.316;2023-04-25T10:58:04;12.30;97.80
10660;DHT22;5378;53.206;13.316;2023-04-25T11:00:52;12.20;97.90
10660;DHT22;5378;53.206;13.316;2023-04-25T11:03:42;12.00;98.70
10660;DHT22;5378;53.206;13.316;2023-04-25T11:06:37;11.80;98.40
10660;DHT22;5378;53.206;13.316;2023-04-25T11:09:29;11.70;99.10
10660;DHT22;5378;53.206;13.316;2023-04-25T11:12:17;11.40;99.90
10660;DHT22;5378;53.206;13.316;2023-04-25T11:15:06;11.60;99.90
10660;DHT22;5378;53.206;13.316;2023-04-25T11:17:54;11.90;99.40
10660;DHT22;5378;53.206;13.316;2023-04-25T11:20:43;12.30;98.60
10660;DHT22;5378;53.206;13.316;2023-04-25T11:23:30;12.40;97.50
10660;DHT22;5378;53.206;13.316;2023-04-25T11:26:19;12.50;98.20
10660;DHT22;5378;53.206;13.316;2023-04-25T11:29:08;12.10;98.50
10660;DHT22;5378;53.206;13.316;2023-04-25T11:31:55;12.30;99.10
10660;DHT22;5378;53.206;13.316;2023-04-25T11:34:44;12.40;98.80
10660;DHT22;5378;53.206;13.316;2023-04-25T11:37:31;12.30;99.00
10660;DHT22;5378;53.206;13.316;2023-04-25T11:40:19;12.10;98.90
10660;DHT22;5378;53.206;13.316;2023-04-25T11:43:06;11.80;98.70
10660;DHT22;5378;53.206;13.316;2023-04-25T11:45:55;11.70;99.60
10660;DHT22;5378;53.206;13.316;2023-04-25T11:48:42;12.00;99.60
10660;DHT22;5378;53.206;13.316;2023-04-25T11:51:30;12.30;99.90
10660;DHT22;5378;53.206;13.316;2023-04-25T11:54:24;12.70;98.80
10660;DHT22;5378;53.206;13.316;2023-04-25T11:57:11;12.40;98.80
10660;DHT22;5378;53.206;13.316;2023-04-25T12:00:06;12.30;97.40
10660;DHT22;5378;53.206;13.316;2023-04-25T12:02:59;12.40;98.10
10660;DHT22;5378;53.206;13.316;2023-04-25T12:05:46;12.50;97.70
10660;DHT22;5378;53.206;13.316;2023-04-25T12:08:33;12.80;97.70
10660;DHT22;5378;53.206;13.316;2023-04-25T12:11:21;12.90;98.10
10660;DHT22;5378;53.206;13.316;2023-04-25T12:14:08;13.00;97.40
10660;DHT22;5378;53.206;13.316;2023-04-25T12:16:57;13.10;95.90
10660;DHT22;5378;53.206;13.316;2023-04-25T12:19:46;13.20;96.40
10660;DHT22;5378;53.206;13.316;2023-04-25T12:22:34;13.10;96.80
10660;DHT22;5378;53.206;13.316;2023-04-25T12:25:35;13.30;96.80
10660;DHT22;5378;53.206;13.316;2023-04-25T12:28:24;13.50;97.10
10660;DHT22;5378;53.206;13.316;2023-04-25T12:31:13;13.80;95.50
10660;DHT22;5378;53.206;13.316;2023-04-25T12:34:01;13.70;95.70
10660;DHT22;5378;53.206;13.316;2023-04-25T12:36:51;13.20;95.80
10660;DHT22;5378;53.206;13.316;2023-04-25T12:39:38;12.90;96.10
10660;DHT22;5378;53.206;13.316;2023-04-25T12:42:26;12.50;97.20
10660;DHT22;5378;53.206;13.316;2023-04-25T12:45:12;12.10;98.40
10660;DHT22;5378;53.206;13.316;2023-04-25T12:48:00;11.60;99.30
10660;DHT22;5378;53.206;13.316;2023-04-25T12:50:49;11.40;99.80
10660;DHT22;5378;53.206;13.316;2023-04-25T12:53:38;11.30;99.90
10660;DHT22;5378;53.206;13.316;2023-04-25T12:56:26;11.50;99.90
10660;DHT22;5378;53.206;13.316;2023-04-25T12:59:13;11.60;99.90
10660;DHT22;5378;53.206;13.316;2023-04-25T13:02:01;11.90;99.90
10660;DHT22;5378;53.206;13.316;2023-04-25T13:04:48;12.10;99.90
10660;DHT22;5378;53.206;13.316;2023-04-25T13:07:37;12.20;99.90
10660;DHT22;5378;53.206;13.316;2023-04-25T13:10:25;12.50;99.80
10660;DHT22;5378;53.206;13.316;2023-04-25T13:13:12;12.80;99.30
10660;DHT22;5378;53.206;13.316;2023-04-25T13:15:59;12.90;99.10
10660;DHT22;5378;53.206;13.316;2023-04-25T13:18:46;12.80;97.20
10660;DHT22;5378;53.206;13.316;2023-04-25T13:21:33;12.70;98.30
10660;DHT22;5378;53.206;13.316;2023-04-25T13:24:20;12.80;98.20
10660;DHT22;5378;53.206;13.316;2023-04-25T13:27:09;12.80;98.90
10660;DHT22;5378;53.206;13.316;2023-04-25T13:29:56;12.90;98.40
10660;DHT22;5378;53.206;13.316;2023-04-25T13:32:43;13.10;98.90
10660;DHT22;5378;53.206;13.316;2023-04-25T13:35:31;13.20;96.90
10660;DHT22;5378;53.206;13.316;2023-04-25T13:38:18;13.30;97.40
10660;DHT22;5378;53.206;13.316;2023-04-25T13:41:05;13.30;96.70
10660;DHT22;5378;53.206;13.316;2023-04-25T13:43:54;13.20;96.80
10660;DHT22;5378;53.206;13.316;2023-04-25T13:46:41;13.10;97.70
10660;DHT22;5378;53.206;13.316;2023-04-25T13:49:30;12.80;97.50
10660;DHT22;5378;53.206;13.316;2023-04-25T13:52:17;12.60;96.60
10660;DHT22;5378;53.206;13.316;2023-04-25T13:55:05;12.40;97.40
10660;DHT22;5378;53.206;13.316;2023-04-25T13:57:53;12.20;98.00
10660;DHT22;5378;53.206;13.316;2023-04-25T14:00:41;12.00;99.20
10660;DHT22;5378;53.206;13.316;2023-04-25T14:03:29;11.60;99.90
10660;DHT22;5378;53.206;13.316;2023-04-25T14:06:17;11.50;99.90
10660;DHT22;5378;53.206;13.316;2023-04-25T14:09:08;11.50;99.90
10660;DHT22;5378;53.206;13.316;2023-04-25T14:11:56;11.40;99.90
10660;DHT22;5378;53.206;13.316;2023-04-25T14:14:43;11.30;99.90
10660;DHT22;5378;53.206;13.316;2023-04-25T14:17:31;11.20;99.90
10660;DHT22;5378;53.206;13.316;2023-04-25T14:20:18;11.30;99.90
10660;DHT22;5378;53.206;13.316;2023-04-25T14:23:07;11.10;99.90
10660;DHT22;5378;53.206;13.316;2023-04-25T14:25:54;11.10;99.90
10660;DHT22;5378;53.206;13.316;2023-04-25T14:28:41;11.00;99.90
10660;DHT22;5378;53.206;13.316;2023-04-25T14:31:28;11.00;99.90
10660;DHT22;5378;53.206;13.316;2023-04-25T14:34:17;10.80;99.90
10660;DHT22;5378;53.206;13.316;2023-04-25T14:37:04;10.30;99.90
10660;DHT22;5378;53.206;13.316;2023-04-25T14:39:51;9.70;99.90
10660;DHT22;5378;53.206;13.316;2023-04-25T14:42:38;9.40;99.90
10660;DHT22;5378;53.206;13.316;2023-04-25T14:45:24;9.40;99.90
10660;DHT22;5378;53.206;13.316;2023-04-25T14:48:12;9.50;99.90
10660;DHT22;5378;53.206;13.316;2023-04-25T14:51:00;9.60;99.90
10660;DHT22;5378;53.206;13.316;2023-04-25T14:53:47;9.70;99.90
10660;DHT22;5378;53.206;13.316;2023-04-25T14:56:34;9.80;99.90
10660;DHT22;5378;53.206;13.316;2023-04-25T14:59:22;9.80;99.90
10660;DHT22;5378;53.206;13.316;2023-04-25T15:02:09;9.90;99.90
10660;DHT22;5378;53.206;13.316;2023-04-25T15:04:56;10.10;99.90
10660;DHT22;5378;53.206;13.316;2023-04-25T15:07:44;10.30;99.90
10660;DHT22;5378;53.206;13.316;2023-04-25T15:10:33;10.50;99.90
10660;DHT22;5378;53.206;13.316;2023-04-25T15:13:21;10.60;99.90
10660;DHT22;5378;53.206;13.316;2023-04-25T15:16:08;10.70;99.90
10660;DHT22;5378;53.206;13.316;2023-04-25T15:18:55;10.90;99.90
10660;DHT22;5378;53.206;13.316;2023-04-25T15:21:42;11.10;99.90
10660;DHT22;5378;53.206;13.316;2023-04-25T15:24:31;11.20;99.90
10660;DHT22;5378;53.206;13.316;2023-04-25T15:27:18;11.30;99.90
10660;DHT22;5378;53.206;13.316;2023-04-25T15:30:06;11.30;99.90
10660;DHT22;5378;53.206;13.316;2023-04-25T15:32:53;11.40;99.90
10660;DHT22;5378;53.206;13.316;2023-04-25T15:35:40;11.60;99.90
10660;DHT22;5378;53.206;13.316;2023-04-25T15:38:27;11.60;99.90
10660;DHT22;5378;53.206;13.316;2023-04-25T15:41:17;11.50;99.90
10660;DHT22;5378;53.206;13.316;2023-04-25T15:44:03;11.40;99.90
10660;DHT22;5378;53.206;13.316;2023-04-25T15:46:52;11.20;99.90
10660;DHT22;5378;53.206;13.316;2023-04-25T15:49:40;11.10;99.90
10660;DHT22;5378;53.206;13.316;2023-04-25T15:52:27;10.90;99.90
10660;DHT22;5378;53.206;13.316;2023-04-25T15:55:15;10.70;99.90
10660;DHT22;5378;53.206;13.316;2023-04-25T15:58:04;10.50;99.90
10660;DHT22;5378;53.206;13.316;2023-04-25T16:00:51;10.50;99.90
10660;DHT22;5378;53.206;13.316;2023-04-25T16:03:40;10.60;99.90
10660;DHT22;5378;53.206;13.316;2023-04-25T16:06:27;10.60;99.90
10660;DHT22;5378;53.206;13.316;2023-04-25T16:09:15;10.60;99.90
10660;DHT22;5378;53.206;13.316;2023-04-25T16:12:03;10.70;99.90
10660;DHT22;5378;53.206;13.316;2023-04-25T16:14:52;10.60;99.90
10660;DHT22;5378;53.206;13.316;2023-04-25T16:17:38;10.70;99.90
10660;DHT22;5378;53.206;13.316;2023-04-25T16:20:26;10.70;99.90
10660;DHT22;5378;53.206;13.316;2023-04-25T16:23:13;10.80;99.90
10660;DHT22;5378;53.206;13.316;2023-04-25T16:26:00;10.70;99.90
10660;DHT22;5378;53.206;13.316;2023-04-25T16:28:47;10.60;99.90
10660;DHT22;5378;53.206;13.316;2023-04-25T16:31:36;10.40;99.90
10660;DHT22;5378;53.206;13.316;2023-04-25T16:34:23;10.40;99.90
10660;DHT22;5378;53.206;13.316;2023-04-25T16:37:12;10.40;99.90
10660;DHT22;5378;53.206;13.316;2023-04-25T16:39:59;10.40;99.90
10660;DHT22;5378;53.206;13.316;2023-04-25T16:42:48;10.30;99.90
10660;DHT22;5378;53.206;13.316;2023-04-25T16:45:35;10.10;99.90
10660;DHT22;5378;53.206;13.316;2023-04-25T16:48:23;10.00;99.90
10660;DHT22;5378;53.206;13.316;2023-04-25T16:51:10;9.90;99.90
10660;DHT22;5378;53.206;13.316;2023-04-25T16:53:58;9.80;99.90
10660;DHT22;5378;53.206;13.316;2023-04-25T16:56:45;9.90;99.90
10660;DHT22;5378;53.206;13.316;2023-04-25T16:59:32;10.00;99.90
10660;DHT22;5378;53.206;13.316;2023-04-25T17:02:20;10.00;99.90
10660;DHT22;5378;53.206;13.316;2023-04-25T17:05:08;10.10;99.90
10660;DHT22;5378;53.206;13.316;2023-04-25T17:07:55;10.30;99.90
10660;DHT22;5378;53.206;13.316;2023-04-25T17:10:42;10.40;99.90
10660;DHT22;5378;53.206;13.316;2023-04-25T17:13:29;10.40;99.90
10660;DHT22;5378;53.206;13.316;2023-04-25T17:16:18;10.40;99.90
10660;DHT22;5378;53.206;13.316;2023-04-25T17:19:07;10.30;99.90
10660;DHT22;5378;53.206;13.316;2023-04-25T17:21:56;10.30;99.90
10660;DHT22;5378;53.206;13.316;2023-04-25T17:24:43;10.40;99.90
10660;DHT22;5378;53.206;13.316;2023-04-25T17:27:30;10.40;99.90
10660;DHT22;5378;53.206;13.316;2023-04-25T17:30:18;10.20;99.90
10660;DHT22;5378;53.206;13.316;2023-04-25T17:33:05;10.00;99.90
10660;DHT22;5378;53.206;13.316;2023-04-25T17:35:52;9.90;99.90
10660;DHT22;5378;53.206;13.316;2023-04-25T17:38:41;9.80;99.90
10660;DHT22;5378;53.206;13.316;2023-04-25T17:41:28;9.70;99.90
10660;DHT22;5378;53.206;13.316;2023-04-25T17:44:16;9.60;99.90
10660;DHT22;5378;53.206;13.316;2023-04-25T17:47:03;9.60;99.90
10660;DHT22;5378;53.206;13.316;2023-04-25T17:49:50;9.60;99.90
10660;DHT22;5378;53.206;13.316;2023-04-25T17:52:38;9.60;99.90
10660;DHT22;5378;53.206;13.316;2023-04-25T17:55:26;9.60;99.90
10660;DHT22;5378;53.206;13.316;2023-04-25T17:58:13;9.50;99.90